LKPR Airport Information

Runway Information
Runway 04 Length 6955 ft width 197 ft
Elevation 1247 ft Threshold 0 ft Heading 37
Runway 22 Length 6955 ft Width 197 ft
Elevation 1174 ft Threshold 0 ft Heading 217
Runway 06 Length 12189 ft width 148 ft
Elevation 1202 ft Threshold 0 ft Heading 65
Runway 24 Length 12189 ft Width 148 ft
Elevation 1158 ft Threshold 0 ft Heading 245
Runway 13 Length 10663 ft width 148 ft
Elevation 1160 ft Threshold 0 ft Heading 127
Runway 31 Length 10663 ft Width 148 ft
Elevation 1232 ft Threshold 0 ft Heading 307
Airport Frequencies
Type APP Name PRAHA APP Frequency 120.525 MHZ
Type ATIS Name ATIS Frequency 122.15 MHZ
Type CLD Name CLNC DEL Frequency 120.05 MHZ
Type GND Name GND Frequency 121.9 MHZ
Type INFO Name INFO Frequency 118.3 MHZ
Type RDR Name RADAR Frequency 119 MHZ
Type TWR Name TWR Frequency 118.1 MHZ
Airport Navaids
Type VOR-DME Name Neratovice Frequency 108600 KHZ
Type VOR-DME Name Praha Frequency 112600 KHZ
Type NDB Name Ruzyne Middle Frequency 307 KHZ
Type NDB Name Ruzyne North Frequency 356 KHZ
Airport Weather Information & NOTAM
ADDS - METARS form results

(0012 UTC 18 January 2018)
 
METAR text: LKPR 180000Z 25015KT 9999 FEW040 M00/M03 Q1006 R24/29//95 R30/550295 NOSIG
Conditions at: LKPR (PRAGUE/RUZYNE , CZ) observed 0000 UTC 18 January 2018
Temperature: 0.0°C (32°F)
Dewpoint: -3.0°C (27°F) [RH = 80%]
Pressure (altimeter): 29.70 inches Hg (1006.0 mb)
Winds: from the WSW (250 degrees) at 17 MPH (15 knots; 7.8 m/s)
Visibility: 6 or more miles (10+ km)
Ceiling: at least 12,000 feet AGL
Clouds: few clouds at 4000 feet AGL
Weather: no significant weather observed at this time

METAR text: LKPR 172330Z 26015KT 9999 FEW040 00/M03 Q1005 R24/29//95 R30/550295 NOSIG
Conditions at: LKPR (PRAGUE/RUZYNE , CZ) observed 2330 UTC 17 January 2018
Temperature: 0.0°C (32°F)
Dewpoint: -3.0°C (27°F) [RH = 80%]
Pressure (altimeter): 29.68 inches Hg (1005.0 mb)
Winds: from the W (260 degrees) at 17 MPH (15 knots; 7.8 m/s)
Visibility: 6 or more miles (10+ km)
Ceiling: at least 12,000 feet AGL
Clouds: few clouds at 4000 feet AGL
Weather: no significant weather observed at this time